createdAt,value
2018-10-21T00:00:21.794Z,19.20
2018-10-21T00:01:21.803Z,17.60
2018-10-21T00:02:21.895Z,19.00
2018-10-21T00:03:21.836Z,17.60
2018-10-21T00:04:21.853Z,22.80
2018-10-21T00:05:21.868Z,22.10
2018-10-21T00:06:21.883Z,18.70
2018-10-21T00:07:21.903Z,17.70
2018-10-21T00:08:21.916Z,18.50
2018-10-21T00:09:21.931Z,21.30
2018-10-21T00:10:21.957Z,20.00
2018-10-21T00:11:22.049Z,21.10
2018-10-21T00:12:21.974Z,17.70
2018-10-21T00:13:21.994Z,17.80
2018-10-21T00:14:22.010Z,15.80
2018-10-21T00:15:22.162Z,16.90
2018-10-21T00:16:22.045Z,19.40
2018-10-21T00:17:22.068Z,19.90
2018-10-21T00:18:22.070Z,16.60
2018-10-21T00:19:22.087Z,16.90
2018-10-21T00:20:22.103Z,17.40
2018-10-21T00:21:22.121Z,21.80
2018-10-21T00:22:22.134Z,20.50
2018-10-21T00:23:22.145Z,19.50
2018-10-21T00:24:22.163Z,17.70
2018-10-21T00:25:22.180Z,22.80
2018-10-21T00:26:22.200Z,21.70
2018-10-21T00:27:22.212Z,21.20
2018-10-21T00:28:22.229Z,18.20
2018-10-21T00:29:22.241Z,16.10
2018-10-21T00:30:22.257Z,16.70
2018-10-21T00:31:22.272Z,16.90
2018-10-21T00:32:22.300Z,19.80
2018-10-21T00:33:22.307Z,18.70
2018-10-21T00:34:22.316Z,16.00
2018-10-21T00:35:22.335Z,19.40
2018-10-21T00:36:22.357Z,18.10
2018-10-21T00:37:22.365Z,15.40
2018-10-21T00:38:22.381Z,17.80
2018-10-21T00:39:22.398Z,17.00
2018-10-21T00:40:22.413Z,19.00
2018-10-21T00:41:22.455Z,20.00
2018-10-21T00:42:22.448Z,20.10
2018-10-21T00:43:22.460Z,17.60
2018-10-21T00:44:22.472Z,19.20
2018-10-21T00:45:22.503Z,19.60
2018-10-21T00:46:22.509Z,20.10
2018-10-21T00:47:22.527Z,16.60
2018-10-21T00:48:22.541Z,18.20
2018-10-21T00:49:22.554Z,26.20
2018-10-21T00:50:22.567Z,18.10
2018-10-21T00:51:22.585Z,19.50
2018-10-21T00:52:22.603Z,17.70
2018-10-21T00:53:22.622Z,16.00
2018-10-21T00:54:22.641Z,18.60
2018-10-21T00:55:22.668Z,18.50
2018-10-21T00:56:22.682Z,16.40
2018-10-21T00:57:22.678Z,15.00
2018-10-21T00:58:22.718Z,18.90
2018-10-21T00:59:22.714Z,21.10
2018-10-21T01:00:22.752Z,20.30
2018-10-21T01:01:22.755Z,19.30
2018-10-21T01:02:22.759Z,16.90
2018-10-21T01:03:22.792Z,20.00
2018-10-21T01:04:22.791Z,16.20
2018-10-21T01:05:22.811Z,20.60
2018-10-21T01:06:22.819Z,19.20
2018-10-21T01:07:22.835Z,19.80
2018-10-21T01:08:22.851Z,16.40
2018-10-21T01:09:22.868Z,26.40
2018-10-21T01:10:22.889Z,15.50
2018-10-21T01:11:22.897Z,17.10
2018-10-21T01:12:22.915Z,19.90
2018-10-21T01:13:22.936Z,14.20
2018-10-21T01:14:22.946Z,20.00
2018-10-21T01:15:22.960Z,18.90
2018-10-21T01:16:22.971Z,15.20
2018-10-21T01:17:22.991Z,16.90
2018-10-21T01:18:23.027Z,19.20
2018-10-21T01:19:23.021Z,16.20
2018-10-21T01:20:23.037Z,17.70
2018-10-21T01:21:23.055Z,19.90
2018-10-21T01:22:23.070Z,19.40
2018-10-21T01:23:23.084Z,17.80
2018-10-21T01:24:23.100Z,17.80
2018-10-21T01:25:23.120Z,21.20
2018-10-21T01:26:23.132Z,18.90
2018-10-21T01:27:23.155Z,24.60
2018-10-21T01:28:23.166Z,16.70
2018-10-21T01:29:23.184Z,18.00
2018-10-21T01:30:23.204Z,18.30
2018-10-21T01:31:23.218Z,28.00
2018-10-21T01:32:23.232Z,17.60
2018-10-21T01:33:23.239Z,17.40
2018-10-21T01:34:23.263Z,17.40
2018-10-21T01:35:23.278Z,17.10
2018-10-21T01:36:23.460Z,14.70
2018-10-21T01:37:23.323Z,15.50
2018-10-21T01:38:23.364Z,14.40
2018-10-21T01:39:23.336Z,19.70
2018-10-21T01:40:23.354Z,15.80
2018-10-21T01:41:23.369Z,21.00
2018-10-21T01:42:23.380Z,13.40
2018-10-21T01:43:23.398Z,15.60
2018-10-21T01:44:23.410Z,17.20
2018-10-21T01:45:23.427Z,16.40
2018-10-21T01:46:23.447Z,17.20
2018-10-21T01:47:23.460Z,16.70
2018-10-21T01:48:23.483Z,15.30
2018-10-21T01:49:23.499Z,17.00
2018-10-21T01:50:23.505Z,18.90
2018-10-21T01:51:23.520Z,14.40
2018-10-21T01:52:23.567Z,21.50
2018-10-21T01:53:23.552Z,17.50
2018-10-21T01:54:23.568Z,17.70
2018-10-21T01:55:23.583Z,17.90
2018-10-21T01:56:23.594Z,17.20
2018-10-21T01:57:23.612Z,17.90
2018-10-21T01:58:23.631Z,19.90
2018-10-21T01:59:23.647Z,17.20
2018-10-21T02:00:23.664Z,18.00
2018-10-21T02:01:23.674Z,17.10
2018-10-21T02:02:23.687Z,18.70
2018-10-21T02:03:23.706Z,20.20
2018-10-21T02:04:23.724Z,17.60
2018-10-21T02:05:23.734Z,16.60
2018-10-21T02:06:23.756Z,13.60
2018-10-21T02:07:23.771Z,13.00
2018-10-21T02:08:23.785Z,15.80
2018-10-21T02:09:23.796Z,19.10
2018-10-21T02:10:23.812Z,17.20
2018-10-21T02:11:23.838Z,17.90
2018-10-21T02:12:23.844Z,16.70
2018-10-21T02:13:23.861Z,15.70
2018-10-21T02:14:23.879Z,17.00
2018-10-21T02:15:23.890Z,16.60
2018-10-21T02:16:23.916Z,19.50
2018-10-21T02:17:23.928Z,16.50
2018-10-21T02:18:23.937Z,20.30
2018-10-21T02:19:23.952Z,20.50
2018-10-21T02:20:23.968Z,16.50
2018-10-21T02:21:23.986Z,13.40
2018-10-21T02:22:23.997Z,15.00
2018-10-21T02:23:24.020Z,17.30
2018-10-21T02:24:24.038Z,16.10
2018-10-21T02:25:24.055Z,19.80
2018-10-21T02:26:24.130Z,18.60
2018-10-21T02:27:24.117Z,17.10
2018-10-21T02:28:24.104Z,15.40
2018-10-21T02:29:24.116Z,16.90
2018-10-21T02:30:24.136Z,14.70
2018-10-21T02:31:24.151Z,22.50
2018-10-21T02:32:24.157Z,14.60
2018-10-21T02:33:24.323Z,15.90
2018-10-21T02:34:24.192Z,18.20
2018-10-21T02:35:24.255Z,16.10
2018-10-21T02:36:24.220Z,18.00
2018-10-21T02:37:24.233Z,21.90
2018-10-21T02:38:24.264Z,16.20
2018-10-21T02:39:24.301Z,20.40
2018-10-21T02:40:24.281Z,16.00
2018-10-21T02:41:24.292Z,19.70
2018-10-21T02:42:24.317Z,18.80
2018-10-21T02:43:24.326Z,15.40
2018-10-21T02:44:24.346Z,17.80
2018-10-21T02:45:24.360Z,20.90
2018-10-21T02:46:24.372Z,17.40
2018-10-21T02:47:24.388Z,16.30
2018-10-21T02:48:24.402Z,18.20
2018-10-21T02:49:24.419Z,18.40
2018-10-21T02:50:24.443Z,19.40
2018-10-21T02:51:24.456Z,17.20
2018-10-21T02:52:24.467Z,17.70
2018-10-21T02:53:24.516Z,16.30
2018-10-21T02:54:24.500Z,19.70
2018-10-21T02:55:24.508Z,18.70
2018-10-21T02:56:24.540Z,16.80
2018-10-21T02:57:24.543Z,16.60
2018-10-21T02:58:24.562Z,17.20
2018-10-21T02:59:24.569Z,20.00
2018-10-21T03:00:24.593Z,17.50
2018-10-21T03:01:24.603Z,19.60
2018-10-21T03:02:24.617Z,18.10
2018-10-21T03:03:24.639Z,20.60
2018-10-21T03:04:24.652Z,16.90
2018-10-21T03:05:24.666Z,18.70
2018-10-21T03:06:24.680Z,22.30
2018-10-21T03:07:24.698Z,16.00
2018-10-21T03:08:24.712Z,18.40
2018-10-21T03:09:24.731Z,16.20
2018-10-21T03:10:24.743Z,22.10
2018-10-21T03:11:24.768Z,14.50
2018-10-21T03:12:24.781Z,15.40
2018-10-21T03:13:24.793Z,19.70
2018-10-21T03:14:24.805Z,18.00
2018-10-21T03:15:24.817Z,17.30
2018-10-21T03:16:24.852Z,19.00
2018-10-21T03:17:24.852Z,17.80
2018-10-21T03:18:24.915Z,16.00
2018-10-21T03:19:24.888Z,15.80
2018-10-21T03:20:24.904Z,18.80
2018-10-21T03:21:24.914Z,16.30
2018-10-21T03:22:24.931Z,18.30
2018-10-21T03:23:24.946Z,15.30
2018-10-21T03:24:24.957Z,20.10
2018-10-21T03:25:24.975Z,18.80
2018-10-21T03:26:24.994Z,15.50
2018-10-21T03:27:25.005Z,15.70
2018-10-21T03:28:25.018Z,14.10
2018-10-21T03:29:25.038Z,17.80
2018-10-21T03:30:25.059Z,14.70
2018-10-21T03:31:25.079Z,15.40
2018-10-21T03:32:25.081Z,15.30
2018-10-21T03:33:25.302Z,17.90
2018-10-21T03:34:25.115Z,15.90
2018-10-21T03:35:25.124Z,15.70
2018-10-21T03:36:25.161Z,20.10
2018-10-21T03:37:25.165Z,17.60
2018-10-21T03:38:25.172Z,14.70
2018-10-21T03:39:25.193Z,13.80
2018-10-21T03:40:25.207Z,19.10
2018-10-21T03:41:25.229Z,14.60
2018-10-21T03:42:25.239Z,14.70
2018-10-21T03:43:25.253Z,14.70
2018-10-21T03:44:25.268Z,16.80
2018-10-21T03:45:25.278Z,16.80
2018-10-21T03:46:25.296Z,17.10
2018-10-21T03:47:25.311Z,15.80
2018-10-21T03:48:25.327Z,17.70
2018-10-21T03:49:25.349Z,15.40
2018-10-21T03:50:25.358Z,17.20
2018-10-21T03:51:25.373Z,15.40
2018-10-21T03:52:25.405Z,15.30
2018-10-21T03:53:25.405Z,19.60
2018-10-21T03:54:25.424Z,15.90
2018-10-21T03:55:25.434Z,19.00
2018-10-21T03:56:25.444Z,18.90
2018-10-21T03:57:25.466Z,16.60
2018-10-21T03:58:25.480Z,16.90
2018-10-21T03:59:25.493Z,23.50
2018-10-21T04:00:25.524Z,46.90
2018-10-21T04:01:25.521Z,50.20
2018-10-21T04:02:25.544Z,53.60
2018-10-21T04:03:25.551Z,41.30
2018-10-21T04:04:25.567Z,46.40
2018-10-21T04:05:25.587Z,35.60
2018-10-21T04:06:25.602Z,35.00
2018-10-21T04:07:25.611Z,29.00
2018-10-21T04:08:25.630Z,19.80
2018-10-21T04:09:25.644Z,17.90
2018-10-21T04:10:25.667Z,24.80
2018-10-21T04:11:25.676Z,20.10
2018-10-21T04:12:25.691Z,24.60
2018-10-21T04:13:25.704Z,16.70
2018-10-21T04:14:25.719Z,19.80
2018-10-21T04:15:25.731Z,21.90
2018-10-21T04:16:25.747Z,19.20
2018-10-21T04:17:25.771Z,19.20
2018-10-21T04:18:25.779Z,19.20
2018-10-21T04:19:25.792Z,19.40
2018-10-21T04:20:25.815Z,21.20
2018-10-21T04:21:25.847Z,19.30
2018-10-21T04:22:25.848Z,16.40
2018-10-21T04:23:25.855Z,15.90
2018-10-21T04:24:25.869Z,16.80
2018-10-21T04:25:25.896Z,20.00
2018-10-21T04:26:25.902Z,19.10
2018-10-21T04:27:25.919Z,18.80
2018-10-21T04:28:25.931Z,15.10
2018-10-21T04:29:25.946Z,16.10
2018-10-21T04:30:25.960Z,19.60
2018-10-21T04:31:25.981Z,19.00
2018-10-21T04:32:25.995Z,22.40
2018-10-21T04:33:26.007Z,18.10
2018-10-21T04:34:26.033Z,22.00
2018-10-21T04:35:26.095Z,21.30
2018-10-21T04:36:26.053Z,19.50
2018-10-21T04:37:26.072Z,20.20
2018-10-21T04:38:26.089Z,19.20
2018-10-21T04:39:26.100Z,19.50
2018-10-21T04:40:26.115Z,19.30
2018-10-21T04:41:26.131Z,17.50
2018-10-21T04:42:26.154Z,19.30
2018-10-21T04:43:26.161Z,15.00
2018-10-21T04:44:26.177Z,15.00
2018-10-21T04:45:26.189Z,14.90
2018-10-21T04:46:26.215Z,17.60
2018-10-21T04:47:26.220Z,17.00
2018-10-21T04:48:26.233Z,16.80
2018-10-21T04:49:26.244Z,19.60
2018-10-21T04:50:26.262Z,21.60
2018-10-21T04:51:26.274Z,19.10
2018-10-21T04:52:26.289Z,18.70
2018-10-21T04:53:26.304Z,20.30
2018-10-21T04:54:26.320Z,17.20
2018-10-21T04:55:26.349Z,20.90
2018-10-21T04:56:26.353Z,16.50
2018-10-21T04:57:26.371Z,19.30
2018-10-21T04:58:26.382Z,18.60
2018-10-21T04:59:26.394Z,16.30
2018-10-21T05:00:26.415Z,17.40
2018-10-21T05:01:26.420Z,17.70
2018-10-21T05:02:26.448Z,18.00
2018-10-21T05:03:26.450Z,23.60
2018-10-21T05:04:26.468Z,21.80
2018-10-21T05:05:26.485Z,21.10
2018-10-21T05:06:26.500Z,22.40
2018-10-21T05:07:26.569Z,21.30
2018-10-21T05:08:26.535Z,18.80
2018-10-21T05:09:26.540Z,21.50
2018-10-21T05:10:26.560Z,18.40
2018-10-21T05:11:26.596Z,14.60
2018-10-21T05:12:26.586Z,17.30
2018-10-21T05:13:26.615Z,19.40
2018-10-21T05:14:26.616Z,23.20
2018-10-21T05:15:26.631Z,19.20
2018-10-21T05:16:26.740Z,17.20
2018-10-21T05:17:26.659Z,19.10
2018-10-21T05:18:26.676Z,20.60
2018-10-21T05:19:26.691Z,19.00
2018-10-21T05:20:26.701Z,17.90
2018-10-21T05:21:26.721Z,18.80
2018-10-21T05:22:26.738Z,22.00
2018-10-21T05:23:26.745Z,17.60
2018-10-21T05:24:26.762Z,20.70
2018-10-21T05:25:26.780Z,16.70
2018-10-21T05:26:26.802Z,19.20
2018-10-21T05:27:26.804Z,19.40
2018-10-21T05:28:26.826Z,19.80
2018-10-21T05:29:26.855Z,18.80
2018-10-21T05:30:26.848Z,17.60
2018-10-21T05:31:26.865Z,18.20
2018-10-21T05:32:26.880Z,21.60
2018-10-21T05:33:26.898Z,22.20
2018-10-21T05:34:26.945Z,17.60
2018-10-21T05:35:26.932Z,21.30
2018-10-21T05:36:26.938Z,21.80
2018-10-21T05:37:26.954Z,19.80
2018-10-21T05:38:26.986Z,15.00
2018-10-21T05:39:26.982Z,20.40
2018-10-21T05:40:27.035Z,22.50
2018-10-21T05:41:27.017Z,22.10
2018-10-21T05:42:27.045Z,20.20
2018-10-21T05:43:27.049Z,20.90
2018-10-21T05:44:27.061Z,20.10
2018-10-21T05:45:27.077Z,27.90
2018-10-21T05:46:27.091Z,19.40
2018-10-21T05:47:27.103Z,21.00
2018-10-21T05:48:27.116Z,20.50
2018-10-21T05:49:27.132Z,20.20
2018-10-21T05:50:27.152Z,20.50
2018-10-21T05:51:27.163Z,20.20
2018-10-21T05:52:27.177Z,19.20
2018-10-21T05:53:27.198Z,20.80
2018-10-21T05:54:27.212Z,19.00
2018-10-21T05:55:27.221Z,19.00
2018-10-21T05:56:27.252Z,21.00
2018-10-21T05:57:27.251Z,19.20
2018-10-21T05:58:27.271Z,22.10
2018-10-21T05:59:27.274Z,20.50
2018-10-21T06:00:27.289Z,16.30
2018-10-21T06:01:27.322Z,18.40
2018-10-21T06:02:27.327Z,16.20
2018-10-21T06:03:27.338Z,21.20
2018-10-21T06:04:27.374Z,18.50
2018-10-21T06:05:27.374Z,17.40
2018-10-21T06:06:27.380Z,16.30
2018-10-21T06:07:27.392Z,20.60
2018-10-21T06:08:27.420Z,20.40
2018-10-21T06:09:27.432Z,19.50
2018-10-21T06:10:27.443Z,22.00
2018-10-21T06:11:27.459Z,22.90
2018-10-21T06:12:27.475Z,20.60
2018-10-21T06:13:27.481Z,17.70
2018-10-21T06:14:27.496Z,20.80
2018-10-21T06:15:27.511Z,17.70
2018-10-21T06:16:27.527Z,18.40
2018-10-21T06:17:27.546Z,17.60
2018-10-21T06:18:27.556Z,20.40
2018-10-21T06:19:27.569Z,15.80
2018-10-21T06:20:27.597Z,19.20
2018-10-21T06:21:27.598Z,25.50
2018-10-21T06:22:27.610Z,23.00
2018-10-21T06:23:27.627Z,18.10
2018-10-21T06:24:27.641Z,22.90
2018-10-21T06:25:27.659Z,23.80
2018-10-21T06:26:27.673Z,33.30
2018-10-21T06:27:27.738Z,24.80
2018-10-21T06:28:27.697Z,23.50
2018-10-21T06:29:27.718Z,25.00
2018-10-21T06:30:27.733Z,20.90
2018-10-21T06:31:27.745Z,20.70
2018-10-21T06:32:27.757Z,22.50
2018-10-21T06:33:27.824Z,24.90
2018-10-21T06:34:27.786Z,27.00
2018-10-21T06:35:27.801Z,23.40
2018-10-21T06:36:27.818Z,22.80
2018-10-21T06:37:27.924Z,21.40
2018-10-21T06:38:27.847Z,23.50
2018-10-21T06:39:27.886Z,21.80
2018-10-21T06:40:27.890Z,22.00
2018-10-21T06:41:27.893Z,23.30
2018-10-21T06:42:27.920Z,27.20
2018-10-21T06:43:27.923Z,20.80
2018-10-21T06:44:27.936Z,24.20
2018-10-21T06:45:28.081Z,26.10
2018-10-21T06:46:27.976Z,22.40
2018-10-21T06:47:27.992Z,22.70
2018-10-21T06:48:28.026Z,22.50
2018-10-21T06:49:28.009Z,22.30
2018-10-21T06:50:28.026Z,19.00
2018-10-21T06:51:28.050Z,23.90
2018-10-21T06:52:28.065Z,22.50
2018-10-21T06:53:28.073Z,25.80
2018-10-21T06:54:28.094Z,23.30
2018-10-21T06:55:28.104Z,20.90
2018-10-21T06:56:28.235Z,23.80
2018-10-21T06:57:28.202Z,22.20
2018-10-21T06:58:28.147Z,21.70
2018-10-21T06:59:28.160Z,19.20
2018-10-21T07:00:28.174Z,18.90
2018-10-21T07:01:28.186Z,23.00
2018-10-21T07:02:28.203Z,19.60
2018-10-21T07:03:28.220Z,20.00
2018-10-21T07:04:28.266Z,19.70
2018-10-21T07:05:28.258Z,17.60
2018-10-21T07:06:28.269Z,22.90
2018-10-21T07:07:28.280Z,20.00
2018-10-21T07:08:28.292Z,18.90
2018-10-21T07:09:28.315Z,19.90
2018-10-21T07:10:28.324Z,23.90
2018-10-21T07:11:28.341Z,19.40
2018-10-21T07:12:28.355Z,19.40
2018-10-21T07:13:28.371Z,22.60
2018-10-21T07:14:28.397Z,18.90
2018-10-21T07:15:28.436Z,21.60
2018-10-21T07:16:28.497Z,25.60
2018-10-21T07:17:28.436Z,21.50
2018-10-21T07:18:28.444Z,23.60
2018-10-21T07:19:28.460Z,17.80
2018-10-21T07:20:28.477Z,25.10
2018-10-21T07:21:28.487Z,25.50
2018-10-21T07:22:28.517Z,23.10
2018-10-21T07:23:28.524Z,25.70
2018-10-21T07:24:28.540Z,21.60
2018-10-21T07:25:28.556Z,21.10
2018-10-21T07:26:28.578Z,26.50
2018-10-21T07:27:28.592Z,22.30
2018-10-21T07:28:28.608Z,27.30
2018-10-21T07:29:28.628Z,26.30
2018-10-21T07:30:28.631Z,24.30
2018-10-21T07:31:28.655Z,25.50
2018-10-21T07:32:28.656Z,24.50
2018-10-21T07:33:28.678Z,25.60
2018-10-21T07:34:28.693Z,24.90
2018-10-21T07:35:28.709Z,25.00
2018-10-21T07:36:28.830Z,25.40
2018-10-21T07:37:28.732Z,21.10
2018-10-21T07:38:28.758Z,27.60
2018-10-21T07:39:28.766Z,27.80
2018-10-21T07:40:28.794Z,23.80
2018-10-21T07:41:28.810Z,26.20
2018-10-21T07:42:28.818Z,20.60
2018-10-21T07:43:28.833Z,31.80
2018-10-21T07:44:28.843Z,24.20
2018-10-21T07:45:28.860Z,24.00
2018-10-21T07:46:28.876Z,24.90
2018-10-21T07:47:28.892Z,25.00
2018-10-21T07:48:28.903Z,27.00
2018-10-21T07:49:28.919Z,28.20
2018-10-21T07:50:29.688Z,24.10
2018-10-21T07:51:29.072Z,23.90
2018-10-21T07:52:28.971Z,25.00
2018-10-21T07:53:28.984Z,30.90
2018-10-21T07:54:28.998Z,25.40
2018-10-21T07:55:29.017Z,22.90
2018-10-21T07:56:29.030Z,23.10
2018-10-21T07:57:29.045Z,27.10
2018-10-21T07:58:29.060Z,27.60
2018-10-21T07:59:29.078Z,23.90
2018-10-21T08:00:29.107Z,23.90
2018-10-21T08:01:29.181Z,23.50
2018-10-21T08:02:29.142Z,26.20
2018-10-21T08:03:29.140Z,24.30
2018-10-21T08:04:29.156Z,25.40
2018-10-21T08:05:29.172Z,27.50
2018-10-21T08:06:29.220Z,22.60
2018-10-21T08:07:29.204Z,27.20
2018-10-21T08:08:29.225Z,28.20
2018-10-21T08:09:29.242Z,25.40
2018-10-21T08:10:29.249Z,25.00
2018-10-21T08:11:29.264Z,26.60
2018-10-21T08:12:29.282Z,29.30
2018-10-21T08:13:29.308Z,30.50
2018-10-21T08:14:29.350Z,31.00
2018-10-21T08:15:29.339Z,28.80
2018-10-21T08:16:29.351Z,30.20
2018-10-21T08:17:29.391Z,29.40
2018-10-21T08:18:29.381Z,27.40
2018-10-21T08:19:29.398Z,35.10
2018-10-21T08:20:29.418Z,29.60
2018-10-21T08:21:29.426Z,31.50
2018-10-21T08:22:29.445Z,27.90
2018-10-21T08:23:29.459Z,24.60
2018-10-21T08:24:29.478Z,25.30
2018-10-21T08:25:29.496Z,34.20
2018-10-21T08:26:29.522Z,28.30
2018-10-21T08:27:29.545Z,32.50
2018-10-21T08:28:29.545Z,30.30
2018-10-21T08:29:29.560Z,27.70
2018-10-21T08:30:29.576Z,31.60
2018-10-21T08:31:29.596Z,32.20
2018-10-21T08:32:29.621Z,26.20
2018-10-21T08:33:29.628Z,27.60
2018-10-21T08:34:29.644Z,27.20
2018-10-21T08:35:29.658Z,34.30
2018-10-21T08:36:29.684Z,24.20
2018-10-21T08:37:29.699Z,28.10
2018-10-21T08:38:29.718Z,28.10
2018-10-21T08:39:29.725Z,27.70
2018-10-21T08:40:29.742Z,32.20
2018-10-21T08:41:29.765Z,48.10
2018-10-21T08:42:29.782Z,44.30
2018-10-21T08:43:29.798Z,38.00
2018-10-21T08:44:29.809Z,34.00
2018-10-21T08:45:29.839Z,39.60
2018-10-21T08:46:29.902Z,34.30
2018-10-21T08:47:29.861Z,31.30
2018-10-21T08:48:29.877Z,30.30
2018-10-21T08:49:29.946Z,28.40
2018-10-21T08:50:29.918Z,33.20
2018-10-21T08:51:29.943Z,30.50
2018-10-21T08:52:29.945Z,33.90
2018-10-21T08:53:29.971Z,30.90
2018-10-21T08:54:29.997Z,32.00
2018-10-21T08:55:30.003Z,27.50
2018-10-21T08:56:30.018Z,32.50
2018-10-21T08:57:30.032Z,35.70
2018-10-21T08:58:30.065Z,27.90
2018-10-21T08:59:30.067Z,31.50
2018-10-21T09:00:30.086Z,31.30
2018-10-21T09:01:30.108Z,25.10
2018-10-21T09:02:30.120Z,33.70
2018-10-21T09:03:30.135Z,30.90
2018-10-21T09:04:30.205Z,26.00
2018-10-21T09:05:30.171Z,30.90
2018-10-21T09:06:30.187Z,28.70
2018-10-21T09:07:30.214Z,32.60
2018-10-21T09:08:30.220Z,26.30
2018-10-21T09:09:30.243Z,26.90
2018-10-21T09:10:30.362Z,28.30
2018-10-21T09:11:30.276Z,31.30
2018-10-21T09:12:30.294Z,31.20
2018-10-21T09:13:30.315Z,30.10
2018-10-21T09:14:30.327Z,32.40
2018-10-21T09:15:30.432Z,26.30
2018-10-21T09:16:30.401Z,33.00
2018-10-21T09:17:30.379Z,29.10
2018-10-21T09:18:30.399Z,33.10
2018-10-21T09:19:30.410Z,27.10
2018-10-21T09:20:30.431Z,27.70
2018-10-21T09:21:30.448Z,26.10
2018-10-21T09:22:30.484Z,26.60
2018-10-21T09:23:30.502Z,29.00
2018-10-21T09:24:30.508Z,28.40
2018-10-21T09:25:30.516Z,27.50
2018-10-21T09:26:30.537Z,28.10
2018-10-21T09:27:30.557Z,26.50
2018-10-21T09:28:30.571Z,29.40
2018-10-21T09:29:30.590Z,31.70
2018-10-21T09:30:30.607Z,28.30
2018-10-21T09:31:30.628Z,26.00
2018-10-21T09:32:30.642Z,30.60
2018-10-21T09:33:30.803Z,28.90
2018-10-21T09:34:30.677Z,30.90
2018-10-21T09:35:30.709Z,37.90
2018-10-21T09:36:30.739Z,29.20
2018-10-21T09:37:30.731Z,31.80
2018-10-21T09:38:30.747Z,36.40
2018-10-21T09:39:30.767Z,29.20
2018-10-21T09:40:30.801Z,35.20
2018-10-21T09:41:30.814Z,34.50
2018-10-21T09:42:30.821Z,32.10
2018-10-21T09:43:30.839Z,29.20
2018-10-21T09:44:30.853Z,30.20
2018-10-21T09:45:30.900Z,31.00
2018-10-21T09:46:30.890Z,29.20
2018-10-21T09:47:30.911Z,29.70
2018-10-21T09:48:30.927Z,31.60
2018-10-21T09:49:30.949Z,33.70
2018-10-21T09:50:30.967Z,29.20
2018-10-21T09:51:30.977Z,27.10
2018-10-21T09:52:30.998Z,33.70
2018-10-21T09:53:31.031Z,30.10
2018-10-21T09:54:31.034Z,29.70
2018-10-21T09:55:31.050Z,30.40
2018-10-21T09:56:31.069Z,36.10
2018-10-21T09:57:31.095Z,32.30
2018-10-21T09:58:31.139Z,30.60
2018-10-21T09:59:31.119Z,35.50
2018-10-21T10:00:31.143Z,35.10
2018-10-21T10:01:31.157Z,30.90
2018-10-21T10:02:31.177Z,31.20
2018-10-21T10:03:31.192Z,29.50
2018-10-21T10:04:31.214Z,31.40
2018-10-21T10:05:31.232Z,30.30
2018-10-21T10:06:31.246Z,30.00
2018-10-21T10:07:31.277Z,32.10
2018-10-21T10:08:31.289Z,32.00
2018-10-21T10:09:31.308Z,26.70
2018-10-21T10:10:31.319Z,28.30
2018-10-21T10:11:31.339Z,29.40
2018-10-21T10:12:31.364Z,27.70
2018-10-21T10:13:31.379Z,27.10
2018-10-21T10:14:31.399Z,31.30
2018-10-21T10:15:31.411Z,27.20
2018-10-21T10:16:31.429Z,31.30
2018-10-21T10:17:31.486Z,30.40
2018-10-21T10:18:31.468Z,31.70
2018-10-21T10:19:31.482Z,32.30
2018-10-21T10:20:31.509Z,32.80
2018-10-21T10:21:31.516Z,30.80
2018-10-21T10:22:31.544Z,31.30
2018-10-21T10:23:31.616Z,27.90
2018-10-21T10:24:31.572Z,28.60
2018-10-21T10:25:31.595Z,31.90
2018-10-21T10:26:31.617Z,33.40
2018-10-21T10:27:31.641Z,32.70
2018-10-21T10:28:31.655Z,30.10
2018-10-21T10:29:31.666Z,32.90
2018-10-21T10:30:31.739Z,33.60
2018-10-21T10:31:31.695Z,31.80
2018-10-21T10:32:31.717Z,32.00
2018-10-21T10:33:31.738Z,33.80
2018-10-21T10:34:31.757Z,31.40
2018-10-21T10:35:31.785Z,30.50
2018-10-21T10:36:31.791Z,37.80
2018-10-21T10:37:31.815Z,30.40
2018-10-21T10:38:31.833Z,32.10
2018-10-21T10:39:31.843Z,30.90
2018-10-21T10:40:31.877Z,35.60
2018-10-21T10:41:31.898Z,32.20
2018-10-21T10:42:31.900Z,37.70
2018-10-21T10:43:31.918Z,33.20
2018-10-21T10:44:31.940Z,38.70
2018-10-21T10:45:31.957Z,40.00
2018-10-21T10:46:31.982Z,37.30
2018-10-21T10:47:31.991Z,34.10
2018-10-21T10:48:32.014Z,38.00
2018-10-21T10:49:32.026Z,35.90
2018-10-21T10:50:32.047Z,38.20
2018-10-21T10:51:32.067Z,50.60
2018-10-21T10:52:32.082Z,42.70
2018-10-21T10:53:32.100Z,41.90
2018-10-21T10:54:32.119Z,35.40
2018-10-21T10:55:32.137Z,37.50
2018-10-21T10:56:32.154Z,42.20
2018-10-21T10:57:32.172Z,46.30
2018-10-21T10:58:32.194Z,40.80
2018-10-21T10:59:32.229Z,39.30
2018-10-21T11:00:32.235Z,40.70
2018-10-21T11:01:32.245Z,39.30
2018-10-21T11:02:32.275Z,37.60
2018-10-21T11:03:32.286Z,38.80
2018-10-21T11:04:32.299Z,39.70
2018-10-21T11:05:32.319Z,36.80
2018-10-21T11:06:32.339Z,41.20
2018-10-21T11:07:32.359Z,47.00
2018-10-21T11:08:32.376Z,51.50
2018-10-21T11:09:32.395Z,46.80
2018-10-21T11:10:32.416Z,42.90
2018-10-21T11:11:32.428Z,38.70
2018-10-21T11:12:32.453Z,42.10
2018-10-21T11:13:32.474Z,45.00
2018-10-21T11:14:32.514Z,42.40
2018-10-21T11:15:32.512Z,41.40
2018-10-21T11:16:32.524Z,43.50
2018-10-21T11:17:32.542Z,42.50
2018-10-21T11:18:32.555Z,46.00
2018-10-21T11:19:32.576Z,39.70
2018-10-21T11:20:32.597Z,42.60
2018-10-21T11:21:32.608Z,46.40
2018-10-21T11:22:32.641Z,45.10
2018-10-21T11:23:32.655Z,44.10
2018-10-21T11:24:32.671Z,43.80
2018-10-21T11:25:32.688Z,42.80
2018-10-21T11:26:32.713Z,48.60
2018-10-21T11:27:32.724Z,40.70
2018-10-21T11:28:32.735Z,52.20
2018-10-21T11:29:32.757Z,44.80
2018-10-21T11:30:32.777Z,44.80
2018-10-21T11:31:32.789Z,41.00
2018-10-21T11:32:32.809Z,39.10
2018-10-21T11:33:32.828Z,40.50
2018-10-21T11:34:32.851Z,42.70
2018-10-21T11:35:32.864Z,39.50
2018-10-21T11:36:32.905Z,44.80
2018-10-21T11:37:33.118Z,45.90
2018-10-21T11:38:32.919Z,45.60
2018-10-21T11:39:32.937Z,43.50
2018-10-21T11:40:32.955Z,41.30
2018-10-21T11:41:32.974Z,43.00
2018-10-21T11:42:32.992Z,44.70
2018-10-21T11:43:33.013Z,37.70
2018-10-21T11:44:33.029Z,41.50
2018-10-21T11:45:33.051Z,42.70
2018-10-21T11:46:33.166Z,43.30
2018-10-21T11:47:33.083Z,46.50
2018-10-21T11:48:33.103Z,50.50
2018-10-21T11:49:33.115Z,48.00
2018-10-21T11:50:33.136Z,46.80
2018-10-21T11:51:33.152Z,47.40
2018-10-21T11:52:33.207Z,41.40
2018-10-21T11:53:33.186Z,42.60
2018-10-21T11:54:33.204Z,48.40
2018-10-21T11:55:33.227Z,40.50
2018-10-21T11:56:33.244Z,47.00
2018-10-21T11:57:33.272Z,44.10
2018-10-21T11:58:33.277Z,49.30
2018-10-21T11:59:33.300Z,39.30
2018-10-21T12:00:33.324Z,39.40
2018-10-21T12:01:33.334Z,45.70
2018-10-21T12:02:33.350Z,37.30
2018-10-21T12:03:33.366Z,44.30
2018-10-21T12:04:33.384Z,43.70
2018-10-21T12:05:33.404Z,39.80
2018-10-21T12:06:33.425Z,45.30
2018-10-21T12:07:33.443Z,38.50
2018-10-21T12:08:33.455Z,49.40
2018-10-21T12:09:33.491Z,44.00
2018-10-21T12:10:33.496Z,44.40
2018-10-21T12:11:34.152Z,40.50
2018-10-21T12:12:33.528Z,43.00
2018-10-21T12:13:33.550Z,42.90
2018-10-21T12:14:33.564Z,40.10
2018-10-21T12:15:33.582Z,49.50
2018-10-21T12:16:33.598Z,42.80
2018-10-21T12:17:33.620Z,42.70
2018-10-21T12:18:33.636Z,37.70
2018-10-21T12:19:33.661Z,38.50
2018-10-21T12:20:33.672Z,37.50
2018-10-21T12:21:33.692Z,40.50
2018-10-21T12:22:33.737Z,38.90
2018-10-21T12:23:33.812Z,38.50
2018-10-21T12:24:33.750Z,40.10
2018-10-21T12:25:33.816Z,41.90
2018-10-21T12:26:33.787Z,42.50
2018-10-21T12:27:33.808Z,40.40
2018-10-21T12:28:33.817Z,40.80
2018-10-21T12:29:33.840Z,36.70
2018-10-21T12:30:33.858Z,40.30
2018-10-21T12:31:33.873Z,37.40
2018-10-21T12:32:33.897Z,41.20
2018-10-21T12:33:34.047Z,35.10
2018-10-21T12:34:33.941Z,43.00
2018-10-21T12:35:33.945Z,37.00
2018-10-21T12:36:33.963Z,37.20
2018-10-21T12:37:33.984Z,35.90
2018-10-21T12:38:34.001Z,39.40
2018-10-21T12:39:34.033Z,40.40
2018-10-21T12:40:34.039Z,37.00
2018-10-21T12:41:34.057Z,32.00
2018-10-21T12:42:34.078Z,33.90
2018-10-21T12:43:34.093Z,32.60
2018-10-21T12:44:34.121Z,36.60
2018-10-21T12:45:34.168Z,32.00
2018-10-21T12:46:34.165Z,33.90
2018-10-21T12:47:34.171Z,30.30
2018-10-21T12:48:34.195Z,34.50
2018-10-21T12:49:34.246Z,34.10
2018-10-21T12:50:34.231Z,39.00
2018-10-21T12:51:34.236Z,27.50
2018-10-21T12:52:34.262Z,26.20